sensor_id;sensor_type;location;lat;lon;timestamp;pressure;altitude;pressure_sealevel;temperature;humidity
49611;BME280;35515;48.766;9.176;2023-03-01T00:00:53;99127.53;;;0.21;69.11
49611;BME280;35515;48.766;9.176;2023-03-01T00:03:19;99128.03;;;0.14;69.46
49611;BME280;35515;48.766;9.176;2023-03-01T00:05:45;99132.03;;;0.09;70.30
49611;BME280;35515;48.766;9.176;2023-03-01T00:08:13;99123.44;;;0.05;70.25
49611;BME280;35515;48.766;9.176;2023-03-01T00:10:40;99135.28;;;0.35;68.94
49611;BME280;35515;48.766;9.176;2023-03-01T00:13:06;99133.84;;;0.20;69.27
49611;BME280;35515;48.766;9.176;2023-03-01T00:15:32;99127.31;;;0.01;70.12
49611;BME280;35515;48.766;9.176;2023-03-01T00:17:59;99137.13;;;0.01;69.82
49611;BME280;35515;48.766;9.176;2023-03-01T00:20:26;99130.72;;;0.03;69.74
49611;BME280;35515;48.766;9.176;2023-03-01T00:22:52;99134.59;;;-0.01;70.15
49611;BME280;35515;48.766;9.176;2023-03-01T00:25:20;99132.66;;;0.01;70.47
49611;BME280;35515;48.766;9.176;2023-03-01T00:27:46;99144.28;;;-0.11;70.71
49611;BME280;35515;48.766;9.176;2023-03-01T00:30:14;99134.00;;;-0.27;70.82
49611;BME280;35515;48.766;9.176;2023-03-01T00:32:40;99133.88;;;-0.03;70.16
49611;BME280;35515;48.766;9.176;2023-03-01T00:35:07;99131.44;;;-0.06;70.00
49611;BME280;35515;48.766;9.176;2023-03-01T00:37:33;99134.34;;;-0.21;70.60
49611;BME280;35515;48.766;9.176;2023-03-01T00:39:59;99131.69;;;-0.09;70.28
49611;BME280;35515;48.766;9.176;2023-03-01T00:42:27;99129.00;;;0.02;69.62
49611;BME280;35515;48.766;9.176;2023-03-01T00:44:53;99133.63;;;-0.11;69.90
49611;BME280;35515;48.766;9.176;2023-03-01T00:47:20;99125.88;;;0.08;69.22
49611;BME280;35515;48.766;9.176;2023-03-01T00:49:46;99122.25;;;-0.02;69.54
49611;BME280;35515;48.766;9.176;2023-03-01T00:52:12;99128.28;;;-0.11;70.10
49611;BME280;35515;48.766;9.176;2023-03-01T00:54:39;99125.03;;;-0.15;70.52
49611;BME280;35515;48.766;9.176;2023-03-01T00:57:05;99123.44;;;-0.18;70.03
49611;BME280;35515;48.766;9.176;2023-03-01T00:59:33;99122.97;;;-0.34;71.23
49611;BME280;35515;48.766;9.176;2023-03-01T01:01:59;99124.66;;;-0.33;71.47
49611;BME280;35515;48.766;9.176;2023-03-01T01:04:26;99119.34;;;-0.33;71.62
49611;BME280;35515;48.766;9.176;2023-03-01T01:06:52;99125.97;;;-0.39;72.28
49611;BME280;35515;48.766;9.176;2023-03-01T01:09:19;99114.59;;;-0.29;71.54
49611;BME280;35515;48.766;9.176;2023-03-01T01:11:46;99119.94;;;-0.29;71.17
49611;BME280;35515;48.766;9.176;2023-03-01T01:14:13;99115.22;;;-0.37;71.75
49611;BME280;35515;48.766;9.176;2023-03-01T01:16:40;99112.06;;;-0.31;71.22
49611;BME280;35515;48.766;9.176;2023-03-01T01:19:07;99116.66;;;-0.22;70.94
49611;BME280;35515;48.766;9.176;2023-03-01T01:21:33;99120.78;;;-0.18;70.46
49611;BME280;35515;48.766;9.176;2023-03-01T01:24:02;99115.94;;;-0.12;70.04
49611;BME280;35515;48.766;9.176;2023-03-01T01:26:29;99107.81;;;-0.34;70.90
49611;BME280;35515;48.766;9.176;2023-03-01T01:28:57;99105.78;;;-0.41;71.03
49611;BME280;35515;48.766;9.176;2023-03-01T01:31:23;99109.66;;;-0.34;71.00
49611;BME280;35515;48.766;9.176;2023-03-01T01:33:51;99101.31;;;-0.18;70.66
49611;BME280;35515;48.766;9.176;2023-03-01T01:36:17;99106.75;;;-0.31;70.58
49611;BME280;35515;48.766;9.176;2023-03-01T01:38:44;99098.03;;;-0.33;70.77
49611;BME280;35515;48.766;9.176;2023-03-01T01:41:10;99105.16;;;-0.34;71.25
49611;BME280;35515;48.766;9.176;2023-03-01T01:43:38;99098.75;;;-0.42;71.51
49611;BME280;35515;48.766;9.176;2023-03-01T01:46:06;99092.69;;;-0.22;71.24
49611;BME280;35515;48.766;9.176;2023-03-01T01:48:39;99095.63;;;-0.25;71.09
49611;BME280;35515;48.766;9.176;2023-03-01T01:51:09;99095.13;;;0.04;69.66
49611;BME280;35515;48.766;9.176;2023-03-01T01:53:37;99091.50;;;-0.06;69.62
49611;BME280;35515;48.766;9.176;2023-03-01T01:56:05;99089.53;;;0.07;68.59
49611;BME280;35515;48.766;9.176;2023-03-01T01:58:32;99085.41;;;0.14;68.46
49611;BME280;35515;48.766;9.176;2023-03-01T02:00:59;99090.41;;;-0.15;69.56
49611;BME280;35515;48.766;9.176;2023-03-01T02:03:26;99084.47;;;0.04;68.48
49611;BME280;35515;48.766;9.176;2023-03-01T02:05:56;99084.94;;;-0.02;68.64
49611;BME280;35515;48.766;9.176;2023-03-01T02:08:26;99082.38;;;0.19;68.26
49611;BME280;35515;48.766;9.176;2023-03-01T02:10:53;99081.75;;;0.15;67.65
49611;BME280;35515;48.766;9.176;2023-03-01T02:13:20;99065.66;;;0.17;68.14
49611;BME280;35515;48.766;9.176;2023-03-01T02:15:47;99069.69;;;0.44;67.12
49611;BME280;35515;48.766;9.176;2023-03-01T02:18:14;99065.78;;;0.15;67.71
49611;BME280;35515;48.766;9.176;2023-03-01T02:20:44;99056.97;;;0.04;67.68
49611;BME280;35515;48.766;9.176;2023-03-01T02:23:14;99055.03;;;0.06;68.16
49611;BME280;35515;48.766;9.176;2023-03-01T02:25:44;99044.94;;;0.21;67.34
49611;BME280;35515;48.766;9.176;2023-03-01T02:28:22;99049.63;;;0.28;67.09
49611;BME280;35515;48.766;9.176;2023-03-01T02:30:49;99057.16;;;0.56;66.39
49611;BME280;35515;48.766;9.176;2023-03-01T02:33:34;99050.31;;;0.42;66.62
49611;BME280;35515;48.766;9.176;2023-03-01T02:36:02;99042.94;;;0.45;66.48
49611;BME280;35515;48.766;9.176;2023-03-01T02:38:30;99040.81;;;0.16;67.18
49611;BME280;35515;48.766;9.176;2023-03-01T02:40:57;99035.56;;;0.26;66.95
49611;BME280;35515;48.766;9.176;2023-03-01T02:43:25;99035.09;;;0.32;67.66
49611;BME280;35515;48.766;9.176;2023-03-01T02:45:56;99036.38;;;0.38;66.88
49611;BME280;35515;48.766;9.176;2023-03-01T02:48:23;99036.59;;;0.46;66.98
49611;BME280;35515;48.766;9.176;2023-03-01T02:50:57;99027.38;;;0.50;66.26
49611;BME280;35515;48.766;9.176;2023-03-01T02:53:31;99027.72;;;0.25;67.33
49611;BME280;35515;48.766;9.176;2023-03-01T02:56:00;99023.88;;;0.18;67.55
49611;BME280;35515;48.766;9.176;2023-03-01T02:58:28;99017.81;;;0.48;66.30
49611;BME280;35515;48.766;9.176;2023-03-01T03:00:55;99024.28;;;0.34;66.82
49611;BME280;35515;48.766;9.176;2023-03-01T03:03:22;99015.16;;;0.15;67.58
49611;BME280;35515;48.766;9.176;2023-03-01T03:05:48;99011.63;;;0.47;66.80
49611;BME280;35515;48.766;9.176;2023-03-01T03:08:15;99014.25;;;0.26;67.55
49611;BME280;35515;48.766;9.176;2023-03-01T03:10:48;99016.38;;;0.44;67.17
49611;BME280;35515;48.766;9.176;2023-03-01T03:13:15;99018.69;;;0.37;66.99
49611;BME280;35515;48.766;9.176;2023-03-01T03:15:43;99011.94;;;0.33;67.37
49611;BME280;35515;48.766;9.176;2023-03-01T03:18:10;99005.84;;;0.42;67.00
49611;BME280;35515;48.766;9.176;2023-03-01T03:20:38;99003.03;;;0.23;67.96
49611;BME280;35515;48.766;9.176;2023-03-01T03:23:05;98999.47;;;0.33;67.27
49611;BME280;35515;48.766;9.176;2023-03-01T03:25:31;99003.72;;;0.25;68.12
49611;BME280;35515;48.766;9.176;2023-03-01T03:28:03;99003.16;;;0.42;67.41
49611;BME280;35515;48.766;9.176;2023-03-01T03:30:34;99003.44;;;0.39;67.49
49611;BME280;35515;48.766;9.176;2023-03-01T03:33:02;98998.03;;;0.50;67.23
49611;BME280;35515;48.766;9.176;2023-03-01T03:35:30;98996.66;;;0.35;67.03
49611;BME280;35515;48.766;9.176;2023-03-01T03:37:57;98999.94;;;0.39;67.50
49611;BME280;35515;48.766;9.176;2023-03-01T03:40:32;99009.25;;;0.33;67.81
49611;BME280;35515;48.766;9.176;2023-03-01T03:42:59;99008.34;;;0.23;68.25
49611;BME280;35515;48.766;9.176;2023-03-01T03:45:25;99004.81;;;0.33;67.79
49611;BME280;35515;48.766;9.176;2023-03-01T03:47:51;98997.91;;;0.31;67.94
49611;BME280;35515;48.766;9.176;2023-03-01T03:50:19;99003.03;;;0.44;67.57
49611;BME280;35515;48.766;9.176;2023-03-01T03:52:45;98995.38;;;0.29;67.88
49611;BME280;35515;48.766;9.176;2023-03-01T03:55:12;98995.47;;;0.28;67.94
49611;BME280;35515;48.766;9.176;2023-03-01T03:57:39;98996.50;;;0.15;68.95
49611;BME280;35515;48.766;9.176;2023-03-01T04:00:06;98997.44;;;0.26;68.12
49611;BME280;35515;48.766;9.176;2023-03-01T04:02:37;98999.28;;;0.14;69.02
49611;BME280;35515;48.766;9.176;2023-03-01T04:05:04;98988.28;;;0.07;69.24
49611;BME280;35515;48.766;9.176;2023-03-01T04:07:32;98985.50;;;0.09;68.87
49611;BME280;35515;48.766;9.176;2023-03-01T04:09:58;98982.63;;;0.01;69.03
49611;BME280;35515;48.766;9.176;2023-03-01T04:12:24;98977.63;;;0.07;69.48
49611;BME280;35515;48.766;9.176;2023-03-01T04:14:51;98977.03;;;0.04;69.37
49611;BME280;35515;48.766;9.176;2023-03-01T04:17:20;98969.00;;;0.15;68.87
49611;BME280;35515;48.766;9.176;2023-03-01T04:19:46;98973.28;;;0.06;69.16
49611;BME280;35515;48.766;9.176;2023-03-01T04:22:13;98971.88;;;-0.09;69.44
49611;BME280;35515;48.766;9.176;2023-03-01T04:24:44;98971.16;;;-0.11;70.20
49611;BME280;35515;48.766;9.176;2023-03-01T04:27:11;98968.47;;;0.21;69.26
49611;BME280;35515;48.766;9.176;2023-03-01T04:29:37;98968.63;;;0.20;69.47
49611;BME280;35515;48.766;9.176;2023-03-01T04:32:04;98965.66;;;0.34;68.81
49611;BME280;35515;48.766;9.176;2023-03-01T04:34:30;98959.47;;;0.12;68.87
49611;BME280;35515;48.766;9.176;2023-03-01T04:36:56;98969.84;;;0.15;68.79
49611;BME280;35515;48.766;9.176;2023-03-01T04:39:23;98974.34;;;0.15;69.28
49611;BME280;35515;48.766;9.176;2023-03-01T04:41:50;98968.41;;;0.11;69.48
49611;BME280;35515;48.766;9.176;2023-03-01T04:44:17;98968.41;;;0.11;69.61
49611;BME280;35515;48.766;9.176;2023-03-01T04:46:44;98965.44;;;0.26;68.94
49611;BME280;35515;48.766;9.176;2023-03-01T04:49:10;98964.91;;;0.32;68.69
49611;BME280;35515;48.766;9.176;2023-03-01T04:51:37;98955.97;;;0.33;68.13
49611;BME280;35515;48.766;9.176;2023-03-01T04:54:04;98959.09;;;0.38;68.19
49611;BME280;35515;48.766;9.176;2023-03-01T04:56:33;98957.91;;;0.31;68.56
49611;BME280;35515;48.766;9.176;2023-03-01T04:59:01;98965.19;;;0.29;68.80
49611;BME280;35515;48.766;9.176;2023-03-01T05:01:30;98954.84;;;0.36;68.17
49611;BME280;35515;48.766;9.176;2023-03-01T05:03:57;98965.66;;;0.55;67.94
49611;BME280;35515;48.766;9.176;2023-03-01T05:06:28;98961.81;;;0.69;66.79
49611;BME280;35515;48.766;9.176;2023-03-01T05:08:54;98963.69;;;0.57;67.74
49611;BME280;35515;48.766;9.176;2023-03-01T05:11:20;98963.13;;;0.54;68.28
49611;BME280;35515;48.766;9.176;2023-03-01T05:13:47;98965.63;;;0.45;68.73
49611;BME280;35515;48.766;9.176;2023-03-01T05:16:16;98962.53;;;0.50;68.49
49611;BME280;35515;48.766;9.176;2023-03-01T05:18:42;98966.81;;;0.62;67.85
49611;BME280;35515;48.766;9.176;2023-03-01T05:21:09;98959.25;;;0.58;68.14
49611;BME280;35515;48.766;9.176;2023-03-01T05:23:36;98961.13;;;0.46;68.92
49611;BME280;35515;48.766;9.176;2023-03-01T05:26:03;98960.94;;;0.59;68.31
49611;BME280;35515;48.766;9.176;2023-03-01T05:28:30;98952.94;;;0.59;68.44
49611;BME280;35515;48.766;9.176;2023-03-01T05:30:57;98956.03;;;0.64;67.88
49611;BME280;35515;48.766;9.176;2023-03-01T05:33:25;98956.38;;;0.49;68.62
49611;BME280;35515;48.766;9.176;2023-03-01T05:35:51;98949.53;;;0.57;68.42
49611;BME280;35515;48.766;9.176;2023-03-01T05:38:18;98957.13;;;0.82;67.30
49611;BME280;35515;48.766;9.176;2023-03-01T05:40:45;98953.31;;;0.75;67.91
49611;BME280;35515;48.766;9.176;2023-03-01T05:43:13;98956.75;;;0.66;68.22
49611;BME280;35515;48.766;9.176;2023-03-01T05:45:40;98955.38;;;0.72;68.16
49611;BME280;35515;48.766;9.176;2023-03-01T05:48:07;98962.38;;;0.63;68.03
49611;BME280;35515;48.766;9.176;2023-03-01T05:50:36;98962.91;;;0.66;67.94
49611;BME280;35515;48.766;9.176;2023-03-01T05:53:03;98960.06;;;0.58;68.15
49611;BME280;35515;48.766;9.176;2023-03-01T05:55:30;98954.59;;;0.60;68.51
49611;BME280;35515;48.766;9.176;2023-03-01T05:57:58;98948.94;;;0.74;68.23
49611;BME280;35515;48.766;9.176;2023-03-01T06:00:24;98943.69;;;0.63;68.66
49611;BME280;35515;48.766;9.176;2023-03-01T06:02:50;98940.47;;;0.69;67.86
49611;BME280;35515;48.766;9.176;2023-03-01T06:05:17;98950.25;;;0.59;68.43
49611;BME280;35515;48.766;9.176;2023-03-01T06:07:45;98944.41;;;0.65;68.27
49611;BME280;35515;48.766;9.176;2023-03-01T06:10:12;98938.50;;;0.61;68.60
49611;BME280;35515;48.766;9.176;2023-03-01T06:12:38;98939.06;;;0.65;68.18
49611;BME280;35515;48.766;9.176;2023-03-01T06:15:06;98939.13;;;0.75;68.55
49611;BME280;35515;48.766;9.176;2023-03-01T06:17:34;98935.47;;;0.76;68.45
49611;BME280;35515;48.766;9.176;2023-03-01T06:20:02;98935.13;;;0.90;66.95
49611;BME280;35515;48.766;9.176;2023-03-01T06:22:29;98938.28;;;0.74;67.13
49611;BME280;35515;48.766;9.176;2023-03-01T06:24:56;98944.78;;;0.81;67.67
49611;BME280;35515;48.766;9.176;2023-03-01T06:27:23;98933.88;;;0.94;66.72
49611;BME280;35515;48.766;9.176;2023-03-01T06:29:49;98937.88;;;1.00;67.21
49611;BME280;35515;48.766;9.176;2023-03-01T06:32:16;98940.34;;;0.71;68.16
49611;BME280;35515;48.766;9.176;2023-03-01T06:34:42;98949.03;;;0.63;68.13
49611;BME280;35515;48.766;9.176;2023-03-01T06:37:08;98944.97;;;0.69;67.76
49611;BME280;35515;48.766;9.176;2023-03-01T06:39:35;98941.03;;;0.63;68.46
49611;BME280;35515;48.766;9.176;2023-03-01T06:42:02;98954.06;;;0.87;67.36
49611;BME280;35515;48.766;9.176;2023-03-01T06:44:29;98954.81;;;0.68;68.16
49611;BME280;35515;48.766;9.176;2023-03-01T06:46:55;98948.16;;;0.83;67.78
49611;BME280;35515;48.766;9.176;2023-03-01T06:49:21;98956.25;;;0.72;67.89
49611;BME280;35515;48.766;9.176;2023-03-01T06:51:48;98947.53;;;0.70;67.96
49611;BME280;35515;48.766;9.176;2023-03-01T06:54:14;98949.84;;;0.85;67.58
49611;BME280;35515;48.766;9.176;2023-03-01T06:56:42;98949.34;;;0.91;67.20
49611;BME280;35515;48.766;9.176;2023-03-01T06:59:10;98951.41;;;0.87;66.90
49611;BME280;35515;48.766;9.176;2023-03-01T07:01:36;98943.31;;;0.98;66.90
49611;BME280;35515;48.766;9.176;2023-03-01T07:04:08;98947.34;;;0.93;67.05
49611;BME280;35515;48.766;9.176;2023-03-01T07:06:35;98956.03;;;0.64;67.65
49611;BME280;35515;48.766;9.176;2023-03-01T07:09:02;98944.06;;;0.79;67.28
49611;BME280;35515;48.766;9.176;2023-03-01T07:11:28;98937.56;;;0.72;67.61
49611;BME280;35515;48.766;9.176;2023-03-01T07:13:54;98932.63;;;0.68;67.87
49611;BME280;35515;48.766;9.176;2023-03-01T07:16:22;98942.69;;;0.64;67.57
49611;BME280;35515;48.766;9.176;2023-03-01T07:18:49;98941.03;;;0.63;67.50
49611;BME280;35515;48.766;9.176;2023-03-01T07:21:15;98941.53;;;0.57;68.58
49611;BME280;35515;48.766;9.176;2023-03-01T07:23:42;98947.19;;;0.42;69.02
49611;BME280;35515;48.766;9.176;2023-03-01T07:26:08;98935.56;;;0.43;68.37
49611;BME280;35515;48.766;9.176;2023-03-01T07:28:34;98931.06;;;0.44;68.58
49611;BME280;35515;48.766;9.176;2023-03-01T07:31:03;98935.88;;;0.50;68.80
49611;BME280;35515;48.766;9.176;2023-03-01T07:33:31;98928.16;;;0.47;68.33
49611;BME280;35515;48.766;9.176;2023-03-01T07:35:58;98926.59;;;0.44;68.69
49611;BME280;35515;48.766;9.176;2023-03-01T07:38:24;98926.31;;;0.47;68.89
49611;BME280;35515;48.766;9.176;2023-03-01T07:40:51;98926.84;;;0.41;68.59
49611;BME280;35515;48.766;9.176;2023-03-01T07:43:17;98932.50;;;0.48;68.69
49611;BME280;35515;48.766;9.176;2023-03-01T07:45:44;98915.38;;;0.50;68.38
49611;BME280;35515;48.766;9.176;2023-03-01T07:48:10;98917.28;;;0.60;68.25
49611;BME280;35515;48.766;9.176;2023-03-01T07:50:38;98911.34;;;0.77;67.55
49611;BME280;35515;48.766;9.176;2023-03-01T07:53:04;98914.69;;;0.70;67.50
49611;BME280;35515;48.766;9.176;2023-03-01T07:55:30;98908.56;;;0.79;67.40
49611;BME280;35515;48.766;9.176;2023-03-01T07:57:57;98912.66;;;0.62;67.86
49611;BME280;35515;48.766;9.176;2023-03-01T08:00:23;98903.94;;;0.60;68.40
49611;BME280;35515;48.766;9.176;2023-03-01T08:02:49;98912.38;;;0.65;68.63
49611;BME280;35515;48.766;9.176;2023-03-01T08:05:16;98908.31;;;0.61;68.63
49611;BME280;35515;48.766;9.176;2023-03-01T08:07:44;98905.13;;;0.67;68.36
49611;BME280;35515;48.766;9.176;2023-03-01T08:10:10;98907.38;;;0.72;67.79
49611;BME280;35515;48.766;9.176;2023-03-01T08:12:37;98905.31;;;0.75;67.30
49611;BME280;35515;48.766;9.176;2023-03-01T08:15:03;98900.28;;;0.82;67.04
49611;BME280;35515;48.766;9.176;2023-03-01T08:17:30;98907.78;;;0.67;67.81
49611;BME280;35515;48.766;9.176;2023-03-01T08:19:56;98901.09;;;0.52;68.56
49611;BME280;35515;48.766;9.176;2023-03-01T08:22:22;98899.34;;;0.62;67.99
49611;BME280;35515;48.766;9.176;2023-03-01T08:24:50;98899.97;;;0.54;68.23
49611;BME280;35515;48.766;9.176;2023-03-01T08:27:16;98906.38;;;0.63;68.00
49611;BME280;35515;48.766;9.176;2023-03-01T08:29:43;98895.94;;;0.60;67.83
49611;BME280;35515;48.766;9.176;2023-03-01T08:32:09;98894.22;;;0.80;67.50
49611;BME280;35515;48.766;9.176;2023-03-01T08:34:36;98894.97;;;0.92;66.53
49611;BME280;35515;48.766;9.176;2023-03-01T08:37:04;98896.31;;;0.76;67.50
49611;BME280;35515;48.766;9.176;2023-03-01T08:39:30;98892.06;;;0.95;66.28
49611;BME280;35515;48.766;9.176;2023-03-01T08:41:58;98892.06;;;0.95;67.09
49611;BME280;35515;48.766;9.176;2023-03-01T08:44:24;98897.13;;;0.98;66.17
49611;BME280;35515;48.766;9.176;2023-03-01T08:46:51;98888.38;;;0.96;66.49
49611;BME280;35515;48.766;9.176;2023-03-01T08:49:18;98884.44;;;0.90;66.99
49611;BME280;35515;48.766;9.176;2023-03-01T08:51:45;98881.19;;;0.87;66.92
49611;BME280;35515;48.766;9.176;2023-03-01T08:54:12;98877.34;;;1.00;66.57
49611;BME280;35515;48.766;9.176;2023-03-01T08:56:39;98874.53;;;1.02;66.73
49611;BME280;35515;48.766;9.176;2023-03-01T08:59:07;98872.97;;;0.99;66.16
49611;BME280;35515;48.766;9.176;2023-03-01T09:01:33;98873.63;;;0.92;66.45
49611;BME280;35515;48.766;9.176;2023-03-01T09:04:00;98866.00;;;1.08;66.03
49611;BME280;35515;48.766;9.176;2023-03-01T09:06:26;98869.47;;;0.99;66.39
49611;BME280;35515;48.766;9.176;2023-03-01T09:08:52;98868.22;;;1.03;66.23
49611;BME280;35515;48.766;9.176;2023-03-01T09:11:20;98857.41;;;1.05;66.29
49611;BME280;35515;48.766;9.176;2023-03-01T09:13:47;98857.69;;;1.11;65.63
49611;BME280;35515;48.766;9.176;2023-03-01T09:16:15;98859.75;;;0.98;66.25
49611;BME280;35515;48.766;9.176;2023-03-01T09:18:42;98852.94;;;1.15;65.67
49611;BME280;35515;48.766;9.176;2023-03-01T09:21:10;98850.66;;;1.10;66.03
49611;BME280;35515;48.766;9.176;2023-03-01T09:23:36;98840.16;;;1.19;65.61
49611;BME280;35515;48.766;9.176;2023-03-01T09:26:04;98832.56;;;1.14;66.07
49611;BME280;35515;48.766;9.176;2023-03-01T09:28:31;98831.16;;;1.20;65.79
49611;BME280;35515;48.766;9.176;2023-03-01T09:30:57;98837.66;;;1.27;65.42
49611;BME280;35515;48.766;9.176;2023-03-01T09:33:25;98835.72;;;1.39;65.24
49611;BME280;35515;48.766;9.176;2023-03-01T09:35:55;98835.44;;;1.52;64.47
49611;BME280;35515;48.766;9.176;2023-03-01T09:38:21;98830.94;;;1.42;64.91
49611;BME280;35515;48.766;9.176;2023-03-01T09:40:48;98830.53;;;1.57;64.71
49611;BME280;35515;48.766;9.176;2023-03-01T09:43:15;98824.75;;;1.52;63.76
49611;BME280;35515;48.766;9.176;2023-03-01T09:45:44;98833.47;;;1.54;64.72
49611;BME280;35515;48.766;9.176;2023-03-01T09:48:13;98835.03;;;1.56;64.80
49611;BME280;35515;48.766;9.176;2023-03-01T09:50:43;98829.13;;;1.72;63.36
49611;BME280;35515;48.766;9.176;2023-03-01T09:53:13;98815.50;;;1.75;63.59
49611;BME280;35515;48.766;9.176;2023-03-01T09:55:40;98824.22;;;1.77;63.46
49611;BME280;35515;48.766;9.176;2023-03-01T09:58:21;98817.03;;;1.88;63.40
49611;BME280;35515;48.766;9.176;2023-03-01T10:00:51;98816.75;;;2.00;62.61
49611;BME280;35515;48.766;9.176;2023-03-01T10:03:20;98814.78;;;1.93;62.80
49611;BME280;35515;48.766;9.176;2023-03-01T10:05:52;98810.56;;;2.00;62.68
49611;BME280;35515;48.766;9.176;2023-03-01T10:08:24;98804.47;;;2.08;61.50
49611;BME280;35515;48.766;9.176;2023-03-01T10:10:52;98802.78;;;2.16;61.34
49611;BME280;35515;48.766;9.176;2023-03-01T10:13:19;98799.66;;;2.21;60.69
49611;BME280;35515;48.766;9.176;2023-03-01T10:15:48;98800.94;;;2.27;60.72
49611;BME280;35515;48.766;9.176;2023-03-01T10:18:20;98803.88;;;2.33;59.99
49611;BME280;35515;48.766;9.176;2023-03-01T10:20:50;98797.75;;;2.13;60.96
49611;BME280;35515;48.766;9.176;2023-03-01T10:23:19;98783.38;;;2.14;61.21
49611;BME280;35515;48.766;9.176;2023-03-01T10:25:47;98780.09;;;2.30;60.58
49611;BME280;35515;48.766;9.176;2023-03-01T10:28:20;98778.81;;;2.34;60.38
49611;BME280;35515;48.766;9.176;2023-03-01T10:30:51;98782.44;;;2.43;60.24
49611;BME280;35515;48.766;9.176;2023-03-01T10:33:19;98766.72;;;2.40;60.27
49611;BME280;35515;48.766;9.176;2023-03-01T10:35:46;98771.19;;;2.49;60.03
49611;BME280;35515;48.766;9.176;2023-03-01T10:38:14;98767.56;;;2.68;59.08
49611;BME280;35515;48.766;9.176;2023-03-01T10:40:51;98761.25;;;2.60;59.21
49611;BME280;35515;48.766;9.176;2023-03-01T10:43:17;98763.66;;;2.63;59.22
49611;BME280;35515;48.766;9.176;2023-03-01T10:45:44;98759.13;;;2.63;59.91
49611;BME280;35515;48.766;9.176;2023-03-01T10:48:12;98768.88;;;2.82;59.36
49611;BME280;35515;48.766;9.176;2023-03-01T10:50:39;98771.28;;;2.86;58.15
49611;BME280;35515;48.766;9.176;2023-03-01T10:53:15;98758.31;;;2.91;58.29
49611;BME280;35515;48.766;9.176;2023-03-01T10:55:42;98758.59;;;2.88;58.83
49611;BME280;35515;48.766;9.176;2023-03-01T10:58:17;98747.94;;;3.06;58.47
49611;BME280;35515;48.766;9.176;2023-03-01T11:00:46;98750.28;;;3.09;57.73
49611;BME280;35515;48.766;9.176;2023-03-01T11:03:13;98750.22;;;3.00;58.16
49611;BME280;35515;48.766;9.176;2023-03-01T11:08:32;98738.84;;;3.16;57.42
49611;BME280;35515;48.766;9.176;2023-03-01T11:11:03;98733.88;;;3.22;57.15
49611;BME280;35515;48.766;9.176;2023-03-01T11:13:31;98724.53;;;3.26;57.21
49611;BME280;35515;48.766;9.176;2023-03-01T11:15:58;98729.66;;;3.37;57.12
49611;BME280;35515;48.766;9.176;2023-03-01T11:18:25;98727.97;;;3.36;57.25
49611;BME280;35515;48.766;9.176;2023-03-01T11:20:53;98722.59;;;3.54;56.34
49611;BME280;35515;48.766;9.176;2023-03-01T11:23:21;98728.88;;;3.45;56.31
49611;BME280;35515;48.766;9.176;2023-03-01T11:25:48;98712.22;;;3.51;56.60
49611;BME280;35515;48.766;9.176;2023-03-01T11:28:17;98706.84;;;3.51;56.77
49611;BME280;35515;48.766;9.176;2023-03-01T11:30:49;98696.13;;;3.51;56.74
49611;BME280;35515;48.766;9.176;2023-03-01T11:33:19;98693.50;;;3.59;56.41
49611;BME280;35515;48.766;9.176;2023-03-01T11:35:49;98689.28;;;3.75;56.45
49611;BME280;35515;48.766;9.176;2023-03-01T11:38:21;98679.78;;;3.80;55.74
49611;BME280;35515;48.766;9.176;2023-03-01T11:40:50;98666.91;;;3.84;56.06
49611;BME280;35515;48.766;9.176;2023-03-01T11:43:26;98678.41;;;3.76;56.45
49611;BME280;35515;48.766;9.176;2023-03-01T11:46:02;98671.97;;;3.95;56.15
49611;BME280;35515;48.766;9.176;2023-03-01T11:48:38;98674.50;;;3.97;55.98
49611;BME280;35515;48.766;9.176;2023-03-01T11:51:09;98671.53;;;4.00;56.09
49611;BME280;35515;48.766;9.176;2023-03-01T11:53:49;98666.41;;;4.15;55.25
49611;BME280;35515;48.766;9.176;2023-03-01T11:56:20;98659.47;;;4.04;55.45
49611;BME280;35515;48.766;9.176;2023-03-01T11:58:57;98661.81;;;4.07;55.45
49611;BME280;35515;48.766;9.176;2023-03-01T12:01:31;98650.13;;;4.08;55.17
49611;BME280;35515;48.766;9.176;2023-03-01T12:04:05;98640.00;;;4.02;55.32
49611;BME280;35515;48.766;9.176;2023-03-01T12:06:39;98647.66;;;4.23;55.03
49611;BME280;35515;48.766;9.176;2023-03-01T12:09:14;98638.09;;;4.21;55.01
49611;BME280;35515;48.766;9.176;2023-03-01T12:11:57;98629.03;;;4.13;55.49
49611;BME280;35515;48.766;9.176;2023-03-01T12:14:35;98628.38;;;4.28;54.82
49611;BME280;35515;48.766;9.176;2023-03-01T12:17:17;98613.69;;;4.32;54.88
49611;BME280;35515;48.766;9.176;2023-03-01T12:20:01;98623.44;;;4.41;54.87
49611;BME280;35515;48.766;9.176;2023-03-01T12:22:35;98606.31;;;4.42;54.20
49611;BME280;35515;48.766;9.176;2023-03-01T12:25:08;98608.34;;;4.48;54.66
49611;BME280;35515;48.766;9.176;2023-03-01T12:27:45;98600.97;;;4.50;54.85
49611;BME280;35515;48.766;9.176;2023-03-01T12:30:19;98586.72;;;4.50;54.97
49611;BME280;35515;48.766;9.176;2023-03-01T12:32:54;98580.91;;;4.63;54.40
49611;BME280;35515;48.766;9.176;2023-03-01T12:35:33;98597.34;;;4.84;53.62
49611;BME280;35515;48.766;9.176;2023-03-01T12:38:06;98593.31;;;4.72;54.29
49611;BME280;35515;48.766;9.176;2023-03-01T12:40:41;98583.75;;;4.86;53.55
49611;BME280;35515;48.766;9.176;2023-03-01T12:43:15;98589.31;;;5.01;53.04
49611;BME280;35515;48.766;9.176;2023-03-01T12:45:49;98572.88;;;4.96;53.10
49611;BME280;35515;48.766;9.176;2023-03-01T12:48:21;98563.97;;;4.95;53.58
49611;BME280;35515;48.766;9.176;2023-03-01T12:50:50;98556.09;;;5.02;53.02
49611;BME280;35515;48.766;9.176;2023-03-01T12:53:20;98544.16;;;5.05;53.19
49611;BME280;35515;48.766;9.176;2023-03-01T12:55:48;98538.97;;;5.11;52.89
49611;BME280;35515;48.766;9.176;2023-03-01T12:58:23;98538.13;;;5.19;52.50
49611;BME280;35515;48.766;9.176;2023-03-01T13:00:53;98536.59;;;5.25;52.83
49611;BME280;35515;48.766;9.176;2023-03-01T13:03:29;98530.19;;;5.34;52.88
49611;BME280;35515;48.766;9.176;2023-03-01T13:06:04;98532.88;;;5.42;52.17
49611;BME280;35515;48.766;9.176;2023-03-01T13:08:36;98528.16;;;5.44;52.13
49611;BME280;35515;48.766;9.176;2023-03-01T13:11:06;98527.81;;;5.47;52.50
49611;BME280;35515;48.766;9.176;2023-03-01T13:13:37;98521.63;;;5.47;52.38
49611;BME280;35515;48.766;9.176;2023-03-01T13:18:46;98533.34;;;5.54;52.10
49611;BME280;35515;48.766;9.176;2023-03-01T13:21:13;98530.63;;;5.62;51.55